sensor_id;sensor_type;location;lat;lon;timestamp;P1;durP1;ratioP1;P2;durP2;ratioP2
52268;SDS011;38224;50.950;4.100;2023-09-30T00:01:13;21.33;;;9.43;;
52268;SDS011;38224;50.950;4.100;2023-09-30T00:03:39;15.00;;;9.32;;
52268;SDS011;38224;50.950;4.100;2023-09-30T00:06:05;13.55;;;8.43;;
52268;SDS011;38224;50.950;4.100;2023-09-30T00:08:30;16.52;;;8.73;;
52268;SDS011;38224;50.950;4.100;2023-09-30T00:10:55;14.70;;;7.68;;
52268;SDS011;38224;50.950;4.100;2023-09-30T00:13:21;15.93;;;8.80;;
52268;SDS011;38224;50.950;4.100;2023-09-30T00:15:46;17.85;;;9.30;;
52268;SDS011;38224;50.950;4.100;2023-09-30T00:18:12;16.35;;;9.43;;
52268;SDS011;38224;50.950;4.100;2023-09-30T00:20:38;14.05;;;9.18;;
52268;SDS011;38224;50.950;4.100;2023-09-30T00:23:03;16.42;;;8.55;;
52268;SDS011;38224;50.950;4.100;2023-09-30T00:25:31;20.23;;;9.60;;
52268;SDS011;38224;50.950;4.100;2023-09-30T00:27:56;18.07;;;8.77;;
52268;SDS011;38224;50.950;4.100;2023-09-30T00:30:21;19.37;;;9.30;;
52268;SDS011;38224;50.950;4.100;2023-09-30T00:32:46;15.40;;;9.03;;
52268;SDS011;38224;50.950;4.100;2023-09-30T00:35:12;18.20;;;9.77;;
52268;SDS011;38224;50.950;4.100;2023-09-30T00:37:37;18.53;;;10.30;;
52268;SDS011;38224;50.950;4.100;2023-09-30T00:40:03;20.48;;;9.57;;
52268;SDS011;38224;50.950;4.100;2023-09-30T00:42:28;19.67;;;9.82;;
52268;SDS011;38224;50.950;4.100;2023-09-30T00:44:54;16.00;;;10.10;;
52268;SDS011;38224;50.950;4.100;2023-09-30T00:47:19;18.37;;;10.10;;
52268;SDS011;38224;50.950;4.100;2023-09-30T00:49:46;18.55;;;9.18;;
52268;SDS011;38224;50.950;4.100;2023-09-30T00:52:11;17.83;;;10.67;;
52268;SDS011;38224;50.950;4.100;2023-09-30T00:54:37;17.90;;;9.90;;
52268;SDS011;38224;50.950;4.100;2023-09-30T00:57:03;18.65;;;9.73;;
52268;SDS011;38224;50.950;4.100;2023-09-30T00:59:30;16.38;;;10.02;;
52268;SDS011;38224;50.950;4.100;2023-09-30T01:01:57;23.63;;;11.00;;
52268;SDS011;38224;50.950;4.100;2023-09-30T01:04:23;25.98;;;10.90;;
52268;SDS011;38224;50.950;4.100;2023-09-30T01:06:51;20.02;;;10.68;;
52268;SDS011;38224;50.950;4.100;2023-09-30T01:09:16;25.23;;;11.17;;
52268;SDS011;38224;50.950;4.100;2023-09-30T01:11:41;17.37;;;10.00;;
52268;SDS011;38224;50.950;4.100;2023-09-30T01:16:50;17.35;;;9.80;;
52268;SDS011;38224;50.950;4.100;2023-09-30T01:19:15;17.95;;;9.55;;
52268;SDS011;38224;50.950;4.100;2023-09-30T01:21:41;18.23;;;11.17;;
52268;SDS011;38224;50.950;4.100;2023-09-30T01:24:06;17.33;;;11.10;;
52268;SDS011;38224;50.950;4.100;2023-09-30T01:26:32;20.30;;;11.55;;
52268;SDS011;38224;50.950;4.100;2023-09-30T01:28:58;19.30;;;11.27;;
52268;SDS011;38224;50.950;4.100;2023-09-30T01:31:23;21.97;;;12.10;;
52268;SDS011;38224;50.950;4.100;2023-09-30T01:33:48;21.60;;;12.60;;
52268;SDS011;38224;50.950;4.100;2023-09-30T01:36:13;22.17;;;12.00;;
52268;SDS011;38224;50.950;4.100;2023-09-30T01:38:40;21.35;;;11.98;;
52268;SDS011;38224;50.950;4.100;2023-09-30T01:41:05;31.40;;;13.32;;
52268;SDS011;38224;50.950;4.100;2023-09-30T01:43:31;19.40;;;12.53;;
52268;SDS011;38224;50.950;4.100;2023-09-30T01:45:56;23.40;;;13.57;;
52268;SDS011;38224;50.950;4.100;2023-09-30T01:48:22;22.30;;;13.07;;
52268;SDS011;38224;50.950;4.100;2023-09-30T01:50:47;25.60;;;13.43;;
52268;SDS011;38224;50.950;4.100;2023-09-30T01:53:12;21.00;;;12.50;;
52268;SDS011;38224;50.950;4.100;2023-09-30T01:55:38;21.50;;;12.87;;
52268;SDS011;38224;50.950;4.100;2023-09-30T01:58:03;27.13;;;13.57;;
52268;SDS011;38224;50.950;4.100;2023-09-30T02:00:28;32.38;;;15.27;;
52268;SDS011;38224;50.950;4.100;2023-09-30T02:02:54;23.85;;;13.07;;
52268;SDS011;38224;50.950;4.100;2023-09-30T02:05:20;19.88;;;12.57;;
52268;SDS011;38224;50.950;4.100;2023-09-30T02:07:46;30.13;;;12.68;;
52268;SDS011;38224;50.950;4.100;2023-09-30T02:10:11;22.98;;;12.52;;
52268;SDS011;38224;50.950;4.100;2023-09-30T02:12:36;26.20;;;13.43;;
52268;SDS011;38224;50.950;4.100;2023-09-30T02:15:02;32.67;;;15.00;;
52268;SDS011;38224;50.950;4.100;2023-09-30T02:17:28;34.35;;;14.20;;
52268;SDS011;38224;50.950;4.100;2023-09-30T02:19:53;30.03;;;15.17;;
52268;SDS011;38224;50.950;4.100;2023-09-30T02:22:19;32.10;;;14.45;;
52268;SDS011;38224;50.950;4.100;2023-09-30T02:24:45;28.00;;;14.87;;
52268;SDS011;38224;50.950;4.100;2023-09-30T02:27:10;27.58;;;13.73;;
52268;SDS011;38224;50.950;4.100;2023-09-30T02:29:35;30.73;;;14.63;;
52268;SDS011;38224;50.950;4.100;2023-09-30T02:32:00;29.20;;;15.17;;
52268;SDS011;38224;50.950;4.100;2023-09-30T02:34:26;24.10;;;13.27;;
52268;SDS011;38224;50.950;4.100;2023-09-30T02:36:52;25.60;;;12.52;;
52268;SDS011;38224;50.950;4.100;2023-09-30T02:39:20;31.17;;;14.20;;
52268;SDS011;38224;50.950;4.100;2023-09-30T02:41:45;28.67;;;14.10;;
52268;SDS011;38224;50.950;4.100;2023-09-30T02:44:11;25.08;;;13.95;;
52268;SDS011;38224;50.950;4.100;2023-09-30T02:46:37;23.65;;;14.18;;
52268;SDS011;38224;50.950;4.100;2023-09-30T02:49:03;36.22;;;13.88;;
52268;SDS011;38224;50.950;4.100;2023-09-30T02:51:28;28.63;;;13.88;;
52268;SDS011;38224;50.950;4.100;2023-09-30T02:53:54;30.00;;;14.25;;
52268;SDS011;38224;50.950;4.100;2023-09-30T02:56:20;24.27;;;14.35;;
52268;SDS011;38224;50.950;4.100;2023-09-30T02:58:45;28.93;;;14.50;;
52268;SDS011;38224;50.950;4.100;2023-09-30T03:01:13;28.88;;;15.10;;
52268;SDS011;38224;50.950;4.100;2023-09-30T03:03:41;29.23;;;14.43;;
52268;SDS011;38224;50.950;4.100;2023-09-30T03:06:09;30.40;;;14.82;;
52268;SDS011;38224;50.950;4.100;2023-09-30T03:08:35;29.73;;;13.70;;
52268;SDS011;38224;50.950;4.100;2023-09-30T03:11:00;26.15;;;14.05;;
52268;SDS011;38224;50.950;4.100;2023-09-30T03:13:26;33.33;;;14.38;;
52268;SDS011;38224;50.950;4.100;2023-09-30T03:15:52;36.23;;;14.47;;
52268;SDS011;38224;50.950;4.100;2023-09-30T03:18:17;40.72;;;16.75;;
52268;SDS011;38224;50.950;4.100;2023-09-30T03:20:42;29.10;;;15.27;;
52268;SDS011;38224;50.950;4.100;2023-09-30T03:23:08;30.98;;;14.68;;
52268;SDS011;38224;50.950;4.100;2023-09-30T03:25:33;38.35;;;15.55;;
52268;SDS011;38224;50.950;4.100;2023-09-30T03:27:58;26.57;;;15.53;;
52268;SDS011;38224;50.950;4.100;2023-09-30T03:30:24;34.03;;;14.97;;
52268;SDS011;38224;50.950;4.100;2023-09-30T03:32:49;38.92;;;16.23;;
52268;SDS011;38224;50.950;4.100;2023-09-30T03:35:14;30.23;;;15.07;;
52268;SDS011;38224;50.950;4.100;2023-09-30T03:37:46;31.00;;;15.10;;
52268;SDS011;38224;50.950;4.100;2023-09-30T03:40:12;31.90;;;15.32;;
52268;SDS011;38224;50.950;4.100;2023-09-30T03:42:40;40.08;;;15.93;;
52268;SDS011;38224;50.950;4.100;2023-09-30T03:45:07;37.13;;;17.08;;
52268;SDS011;38224;50.950;4.100;2023-09-30T03:47:33;34.05;;;15.88;;
52268;SDS011;38224;50.950;4.100;2023-09-30T03:49:59;32.42;;;16.25;;
52268;SDS011;38224;50.950;4.100;2023-09-30T03:52:24;40.20;;;17.20;;
52268;SDS011;38224;50.950;4.100;2023-09-30T03:54:51;28.92;;;15.55;;
52268;SDS011;38224;50.950;4.100;2023-09-30T03:57:16;37.53;;;15.40;;
52268;SDS011;38224;50.950;4.100;2023-09-30T03:59:41;37.60;;;16.15;;
52268;SDS011;38224;50.950;4.100;2023-09-30T04:02:07;38.53;;;16.42;;
52268;SDS011;38224;50.950;4.100;2023-09-30T04:04:33;42.40;;;15.90;;
52268;SDS011;38224;50.950;4.100;2023-09-30T04:06:59;28.80;;;14.48;;
52268;SDS011;38224;50.950;4.100;2023-09-30T04:09:24;37.78;;;16.65;;
52268;SDS011;38224;50.950;4.100;2023-09-30T04:11:50;36.13;;;15.65;;
52268;SDS011;38224;50.950;4.100;2023-09-30T04:14:16;39.33;;;15.80;;
52268;SDS011;38224;50.950;4.100;2023-09-30T04:16:42;34.67;;;15.57;;
52268;SDS011;38224;50.950;4.100;2023-09-30T04:19:08;34.15;;;16.42;;
52268;SDS011;38224;50.950;4.100;2023-09-30T04:21:35;38.53;;;16.02;;
52268;SDS011;38224;50.950;4.100;2023-09-30T04:24:00;37.50;;;15.95;;
52268;SDS011;38224;50.950;4.100;2023-09-30T04:26:26;38.60;;;15.65;;
52268;SDS011;38224;50.950;4.100;2023-09-30T04:28:51;36.15;;;15.57;;
52268;SDS011;38224;50.950;4.100;2023-09-30T04:31:16;37.20;;;16.75;;
52268;SDS011;38224;50.950;4.100;2023-09-30T04:33:43;39.75;;;16.17;;
52268;SDS011;38224;50.950;4.100;2023-09-30T04:36:08;33.85;;;15.77;;
52268;SDS011;38224;50.950;4.100;2023-09-30T04:38:34;36.88;;;16.50;;
52268;SDS011;38224;50.950;4.100;2023-09-30T04:41:00;39.05;;;16.95;;
52268;SDS011;38224;50.950;4.100;2023-09-30T04:43:26;33.15;;;17.67;;
52268;SDS011;38224;50.950;4.100;2023-09-30T04:45:54;45.92;;;15.95;;
52268;SDS011;38224;50.950;4.100;2023-09-30T04:48:20;32.17;;;17.17;;
52268;SDS011;38224;50.950;4.100;2023-09-30T04:50:46;37.75;;;15.95;;
52268;SDS011;38224;50.950;4.100;2023-09-30T04:53:12;36.83;;;16.40;;
52268;SDS011;38224;50.950;4.100;2023-09-30T04:55:38;45.35;;;16.88;;
52268;SDS011;38224;50.950;4.100;2023-09-30T04:58:03;40.45;;;16.35;;
52268;SDS011;38224;50.950;4.100;2023-09-30T05:00:30;36.60;;;14.85;;
52268;SDS011;38224;50.950;4.100;2023-09-30T05:02:55;31.40;;;15.15;;
52268;SDS011;38224;50.950;4.100;2023-09-30T05:05:21;41.15;;;14.90;;
52268;SDS011;38224;50.950;4.100;2023-09-30T05:07:46;38.40;;;16.17;;
52268;SDS011;38224;50.950;4.100;2023-09-30T05:10:12;44.15;;;16.10;;
52268;SDS011;38224;50.950;4.100;2023-09-30T05:12:41;39.35;;;16.77;;
52268;SDS011;38224;50.950;4.100;2023-09-30T05:15:10;40.40;;;16.58;;
52268;SDS011;38224;50.950;4.100;2023-09-30T05:17:35;47.20;;;16.70;;
52268;SDS011;38224;50.950;4.100;2023-09-30T05:20:01;44.17;;;16.92;;
52268;SDS011;38224;50.950;4.100;2023-09-30T05:22:32;35.63;;;16.25;;
52268;SDS011;38224;50.950;4.100;2023-09-30T05:24:57;34.90;;;16.73;;
52268;SDS011;38224;50.950;4.100;2023-09-30T05:27:22;40.83;;;16.37;;
52268;SDS011;38224;50.950;4.100;2023-09-30T05:29:48;46.85;;;16.58;;
52268;SDS011;38224;50.950;4.100;2023-09-30T05:32:13;40.88;;;14.98;;
52268;SDS011;38224;50.950;4.100;2023-09-30T05:34:39;36.30;;;15.50;;
52268;SDS011;38224;50.950;4.100;2023-09-30T05:37:04;35.03;;;15.05;;
52268;SDS011;38224;50.950;4.100;2023-09-30T05:39:30;37.45;;;14.15;;
52268;SDS011;38224;50.950;4.100;2023-09-30T05:41:56;29.27;;;14.02;;
52268;SDS011;38224;50.950;4.100;2023-09-30T05:44:22;39.08;;;16.40;;
52268;SDS011;38224;50.950;4.100;2023-09-30T05:46:47;43.63;;;15.73;;
52268;SDS011;38224;50.950;4.100;2023-09-30T05:49:12;45.88;;;15.60;;
52268;SDS011;38224;50.950;4.100;2023-09-30T05:51:41;45.08;;;16.02;;
52268;SDS011;38224;50.950;4.100;2023-09-30T05:54:07;39.92;;;15.50;;
52268;SDS011;38224;50.950;4.100;2023-09-30T05:56:35;34.85;;;13.07;;
52268;SDS011;38224;50.950;4.100;2023-09-30T05:59:00;47.55;;;14.73;;
52268;SDS011;38224;50.950;4.100;2023-09-30T06:01:26;43.95;;;14.57;;
52268;SDS011;38224;50.950;4.100;2023-09-30T06:03:52;29.88;;;13.68;;
52268;SDS011;38224;50.950;4.100;2023-09-30T06:06:18;29.57;;;13.90;;
52268;SDS011;38224;50.950;4.100;2023-09-30T06:08:43;29.07;;;13.53;;
52268;SDS011;38224;50.950;4.100;2023-09-30T06:11:18;35.38;;;12.77;;
52268;SDS011;38224;50.950;4.100;2023-09-30T06:13:44;37.33;;;13.50;;
52268;SDS011;38224;50.950;4.100;2023-09-30T06:16:10;31.95;;;13.73;;
52268;SDS011;38224;50.950;4.100;2023-09-30T06:18:36;32.25;;;12.48;;
52268;SDS011;38224;50.950;4.100;2023-09-30T06:21:01;34.58;;;12.00;;
52268;SDS011;38224;50.950;4.100;2023-09-30T06:23:28;38.33;;;13.00;;
52268;SDS011;38224;50.950;4.100;2023-09-30T06:25:55;32.63;;;13.07;;
52268;SDS011;38224;50.950;4.100;2023-09-30T06:28:21;38.28;;;11.88;;
52268;SDS011;38224;50.950;4.100;2023-09-30T06:30:51;34.83;;;12.30;;
52268;SDS011;38224;50.950;4.100;2023-09-30T06:33:16;29.00;;;11.40;;
52268;SDS011;38224;50.950;4.100;2023-09-30T06:35:41;43.95;;;11.77;;
52268;SDS011;38224;50.950;4.100;2023-09-30T06:38:15;25.25;;;10.38;;
52268;SDS011;38224;50.950;4.100;2023-09-30T06:40:40;36.55;;;11.02;;
52268;SDS011;38224;50.950;4.100;2023-09-30T06:43:07;25.00;;;9.90;;
52268;SDS011;38224;50.950;4.100;2023-09-30T06:45:34;31.75;;;9.82;;
52268;SDS011;38224;50.950;4.100;2023-09-30T06:47:59;28.80;;;8.87;;
52268;SDS011;38224;50.950;4.100;2023-09-30T06:50:24;27.63;;;9.82;;
52268;SDS011;38224;50.950;4.100;2023-09-30T06:52:49;27.63;;;9.27;;
52268;SDS011;38224;50.950;4.100;2023-09-30T06:55:15;21.93;;;7.20;;
52268;SDS011;38224;50.950;4.100;2023-09-30T06:57:41;23.20;;;7.28;;
52268;SDS011;38224;50.950;4.100;2023-09-30T07:00:10;22.10;;;7.32;;
52268;SDS011;38224;50.950;4.100;2023-09-30T07:02:36;19.77;;;6.38;;
52268;SDS011;38224;50.950;4.100;2023-09-30T07:05:05;21.27;;;6.85;;
52268;SDS011;38224;50.950;4.100;2023-09-30T07:07:30;28.63;;;7.95;;
52268;SDS011;38224;50.950;4.100;2023-09-30T07:09:56;14.83;;;5.87;;
52268;SDS011;38224;50.950;4.100;2023-09-30T07:12:21;16.25;;;5.78;;
52268;SDS011;38224;50.950;4.100;2023-09-30T07:14:47;20.05;;;6.47;;
52268;SDS011;38224;50.950;4.100;2023-09-30T07:17:12;21.73;;;6.73;;
52268;SDS011;38224;50.950;4.100;2023-09-30T07:19:37;21.10;;;7.13;;
52268;SDS011;38224;50.950;4.100;2023-09-30T07:22:02;19.33;;;6.77;;
52268;SDS011;38224;50.950;4.100;2023-09-30T07:24:28;20.65;;;5.53;;
52268;SDS011;38224;50.950;4.100;2023-09-30T07:26:53;20.03;;;5.47;;
52268;SDS011;38224;50.950;4.100;2023-09-30T07:29:18;21.90;;;7.00;;
52268;SDS011;38224;50.950;4.100;2023-09-30T07:31:43;22.43;;;6.20;;
52268;SDS011;38224;50.950;4.100;2023-09-30T07:34:09;20.57;;;5.77;;
52268;SDS011;38224;50.950;4.100;2023-09-30T07:36:34;19.57;;;5.53;;
52268;SDS011;38224;50.950;4.100;2023-09-30T07:38:59;18.60;;;5.87;;
52268;SDS011;38224;50.950;4.100;2023-09-30T07:41:26;20.92;;;5.35;;
52268;SDS011;38224;50.950;4.100;2023-09-30T07:43:51;15.43;;;5.38;;
52268;SDS011;38224;50.950;4.100;2023-09-30T07:46:16;20.20;;;6.17;;
52268;SDS011;38224;50.950;4.100;2023-09-30T07:48:42;19.03;;;6.33;;
52268;SDS011;38224;50.950;4.100;2023-09-30T07:51:07;12.68;;;5.00;;
52268;SDS011;38224;50.950;4.100;2023-09-30T07:53:38;18.75;;;6.70;;
52268;SDS011;38224;50.950;4.100;2023-09-30T07:56:03;17.55;;;5.28;;
52268;SDS011;38224;50.950;4.100;2023-09-30T07:58:28;19.42;;;5.55;;
52268;SDS011;38224;50.950;4.100;2023-09-30T08:00:54;16.67;;;5.70;;
52268;SDS011;38224;50.950;4.100;2023-09-30T08:03:19;17.13;;;5.77;;
52268;SDS011;38224;50.950;4.100;2023-09-30T08:05:44;22.40;;;7.57;;
52268;SDS011;38224;50.950;4.100;2023-09-30T08:08:11;16.38;;;5.72;;
52268;SDS011;38224;50.950;4.100;2023-09-30T08:10:36;19.10;;;5.30;;
52268;SDS011;38224;50.950;4.100;2023-09-30T08:13:02;14.77;;;5.18;;
52268;SDS011;38224;50.950;4.100;2023-09-30T08:15:27;17.48;;;5.65;;
52268;SDS011;38224;50.950;4.100;2023-09-30T08:17:53;17.98;;;5.22;;
52268;SDS011;38224;50.950;4.100;2023-09-30T08:20:18;16.33;;;5.80;;
52268;SDS011;38224;50.950;4.100;2023-09-30T08:22:44;20.42;;;6.22;;
52268;SDS011;38224;50.950;4.100;2023-09-30T08:25:10;21.38;;;6.13;;
52268;SDS011;38224;50.950;4.100;2023-09-30T08:27:36;19.83;;;5.90;;
52268;SDS011;38224;50.950;4.100;2023-09-30T08:30:01;25.23;;;7.05;;
52268;SDS011;38224;50.950;4.100;2023-09-30T08:32:31;21.38;;;7.10;;
52268;SDS011;38224;50.950;4.100;2023-09-30T08:34:56;24.77;;;6.18;;
52268;SDS011;38224;50.950;4.100;2023-09-30T08:37:23;23.45;;;7.00;;
52268;SDS011;38224;50.950;4.100;2023-09-30T08:39:48;26.03;;;6.80;;
52268;SDS011;38224;50.950;4.100;2023-09-30T08:42:15;22.88;;;5.80;;
52268;SDS011;38224;50.950;4.100;2023-09-30T08:44:43;22.50;;;5.93;;
52268;SDS011;38224;50.950;4.100;2023-09-30T08:47:09;27.02;;;6.22;;
52268;SDS011;38224;50.950;4.100;2023-09-30T08:49:37;24.42;;;6.30;;
52268;SDS011;38224;50.950;4.100;2023-09-30T08:52:03;21.35;;;6.10;;
52268;SDS011;38224;50.950;4.100;2023-09-30T08:54:29;25.00;;;6.68;;
52268;SDS011;38224;50.950;4.100;2023-09-30T08:56:55;20.30;;;5.82;;
52268;SDS011;38224;50.950;4.100;2023-09-30T08:59:21;22.30;;;5.85;;
52268;SDS011;38224;50.950;4.100;2023-09-30T09:01:47;23.52;;;6.55;;
52268;SDS011;38224;50.950;4.100;2023-09-30T09:04:12;19.60;;;5.80;;
52268;SDS011;38224;50.950;4.100;2023-09-30T09:06:37;19.63;;;5.83;;
52268;SDS011;38224;50.950;4.100;2023-09-30T09:09:15;24.00;;;6.73;;
52268;SDS011;38224;50.950;4.100;2023-09-30T09:11:42;24.27;;;6.40;;
52268;SDS011;38224;50.950;4.100;2023-09-30T09:14:07;14.48;;;5.35;;
52268;SDS011;38224;50.950;4.100;2023-09-30T09:16:33;19.67;;;5.57;;
52268;SDS011;38224;50.950;4.100;2023-09-30T09:18:58;18.53;;;5.30;;
52268;SDS011;38224;50.950;4.100;2023-09-30T09:21:24;18.87;;;5.77;;
52268;SDS011;38224;50.950;4.100;2023-09-30T09:23:51;16.67;;;5.22;;
52268;SDS011;38224;50.950;4.100;2023-09-30T09:26:26;18.80;;;4.95;;
52268;SDS011;38224;50.950;4.100;2023-09-30T09:28:58;18.17;;;5.82;;
52268;SDS011;38224;50.950;4.100;2023-09-30T09:31:25;21.13;;;5.80;;
52268;SDS011;38224;50.950;4.100;2023-09-30T09:33:51;18.42;;;5.47;;
52268;SDS011;38224;50.950;4.100;2023-09-30T09:36:16;23.70;;;5.22;;
52268;SDS011;38224;50.950;4.100;2023-09-30T09:38:48;15.68;;;5.38;;
52268;SDS011;38224;50.950;4.100;2023-09-30T09:43:42;18.93;;;5.50;;
52268;SDS011;38224;50.950;4.100;2023-09-30T09:46:08;23.73;;;6.65;;
52268;SDS011;38224;50.950;4.100;2023-09-30T09:48:37;21.63;;;5.88;;
52268;SDS011;38224;50.950;4.100;2023-09-30T09:51:03;16.40;;;5.40;;
52268;SDS011;38224;50.950;4.100;2023-09-30T09:53:30;20.38;;;5.30;;
52268;SDS011;38224;50.950;4.100;2023-09-30T09:55:58;18.98;;;6.18;;
52268;SDS011;38224;50.950;4.100;2023-09-30T09:58:24;17.08;;;6.28;;
52268;SDS011;38224;50.950;4.100;2023-09-30T10:00:50;16.00;;;5.68;;
52268;SDS011;38224;50.950;4.100;2023-09-30T10:03:16;17.17;;;5.80;;
52268;SDS011;38224;50.950;4.100;2023-09-30T10:05:42;19.00;;;5.90;;
52268;SDS011;38224;50.950;4.100;2023-09-30T10:08:10;23.73;;;5.63;;
52268;SDS011;38224;50.950;4.100;2023-09-30T10:10:36;20.02;;;6.05;;
52268;SDS011;38224;50.950;4.100;2023-09-30T10:13:05;14.57;;;5.18;;
52268;SDS011;38224;50.950;4.100;2023-09-30T10:15:34;20.67;;;5.93;;
52268;SDS011;38224;50.950;4.100;2023-09-30T10:18:01;23.27;;;7.07;;
52268;SDS011;38224;50.950;4.100;2023-09-30T10:20:32;16.98;;;4.97;;
52268;SDS011;38224;50.950;4.100;2023-09-30T10:25:42;16.95;;;4.90;;
52268;SDS011;38224;50.950;4.100;2023-09-30T10:31:08;16.17;;;5.30;;
52268;SDS011;38224;50.950;4.100;2023-09-30T10:33:35;18.58;;;4.65;;
52268;SDS011;38224;50.950;4.100;2023-09-30T10:36:00;11.43;;;4.18;;
52268;SDS011;38224;50.950;4.100;2023-09-30T10:41:00;15.68;;;4.40;;
52268;SDS011;38224;50.950;4.100;2023-09-30T10:43:31;16.33;;;4.50;;
52268;SDS011;38224;50.950;4.100;2023-09-30T10:45:56;11.85;;;4.45;;
52268;SDS011;38224;50.950;4.100;2023-09-30T10:50:50;15.55;;;3.80;;
52268;SDS011;38224;50.950;4.100;2023-09-30T10:53:17;17.60;;;4.50;;
52268;SDS011;38224;50.950;4.100;2023-09-30T10:55:42;15.48;;;4.47;;
52268;SDS011;38224;50.950;4.100;2023-09-30T10:58:09;15.10;;;4.18;;
52268;SDS011;38224;50.950;4.100;2023-09-30T11:00:34;18.05;;;4.03;;
52268;SDS011;38224;50.950;4.100;2023-09-30T11:03:00;16.90;;;4.90;;
52268;SDS011;38224;50.950;4.100;2023-09-30T11:05:25;18.77;;;5.13;;
52268;SDS011;38224;50.950;4.100;2023-09-30T11:07:51;18.20;;;4.25;;
52268;SDS011;38224;50.950;4.100;2023-09-30T11:10:17;17.77;;;4.20;;
52268;SDS011;38224;50.950;4.100;2023-09-30T11:12:53;14.50;;;3.85;;
52268;SDS011;38224;50.950;4.100;2023-09-30T11:15:18;10.50;;;3.67;;
52268;SDS011;38224;50.950;4.100;2023-09-30T11:17:43;12.60;;;4.27;;
52268;SDS011;38224;50.950;4.100;2023-09-30T11:20:09;22.90;;;4.25;;
52268;SDS011;38224;50.950;4.100;2023-09-30T11:22:34;19.52;;;4.25;;
52268;SDS011;38224;50.950;4.100;2023-09-30T11:25:00;14.70;;;4.95;;
52268;SDS011;38224;50.950;4.100;2023-09-30T11:27:25;11.88;;;4.40;;
52268;SDS011;38224;50.950;4.100;2023-09-30T11:29:51;12.63;;;3.58;;
52268;SDS011;38224;50.950;4.100;2023-09-30T11:32:26;11.40;;;3.38;;
52268;SDS011;38224;50.950;4.100;2023-09-30T11:34:52;13.30;;;3.50;;
52268;SDS011;38224;50.950;4.100;2023-09-30T11:37:17;12.82;;;4.50;;
52268;SDS011;38224;50.950;4.100;2023-09-30T11:39:43;15.97;;;3.60;;
52268;SDS011;38224;50.950;4.100;2023-09-30T11:42:15;11.00;;;3.42;;
52268;SDS011;38224;50.950;4.100;2023-09-30T11:44:46;13.27;;;3.38;;
52268;SDS011;38224;50.950;4.100;2023-09-30T11:47:12;14.80;;;3.42;;
52268;SDS011;38224;50.950;4.100;2023-09-30T11:49:38;13.90;;;3.53;;
52268;SDS011;38224;50.950;4.100;2023-09-30T11:52:04;12.63;;;2.88;;
52268;SDS011;38224;50.950;4.100;2023-09-30T11:54:31;10.45;;;3.22;;
52268;SDS011;38224;50.950;4.100;2023-09-30T11:56:57;7.20;;;3.00;;
52268;SDS011;38224;50.950;4.100;2023-09-30T11:59:23;12.25;;;3.15;;
52268;SDS011;38224;50.950;4.100;2023-09-30T12:01:49;15.13;;;3.85;;
52268;SDS011;38224;50.950;4.100;2023-09-30T12:04:15;14.00;;;4.03;;
52268;SDS011;38224;50.950;4.100;2023-09-30T12:06:42;10.73;;;3.42;;
52268;SDS011;38224;50.950;4.100;2023-09-30T12:09:07;10.70;;;2.92;;
52268;SDS011;38224;50.950;4.100;2023-09-30T12:11:38;13.75;;;3.90;;
52268;SDS011;38224;50.950;4.100;2023-09-30T12:14:03;7.50;;;2.83;;
52268;SDS011;38224;50.950;4.100;2023-09-30T12:16:29;9.02;;;3.15;;
52268;SDS011;38224;50.950;4.100;2023-09-30T12:18:55;8.95;;;2.80;;
52268;SDS011;38224;50.950;4.100;2023-09-30T12:21:20;12.13;;;3.73;;
52268;SDS011;38224;50.950;4.100;2023-09-30T12:23:47;11.02;;;3.10;;
52268;SDS011;38224;50.950;4.100;2023-09-30T12:26:13;14.10;;;2.97;;
52268;SDS011;38224;50.950;4.100;2023-09-30T12:28:39;11.23;;;3.20;;
52268;SDS011;38224;50.950;4.100;2023-09-30T12:31:06;6.85;;;2.55;;
52268;SDS011;38224;50.950;4.100;2023-09-30T12:33:31;7.97;;;2.73;;
52268;SDS011;38224;50.950;4.100;2023-09-30T12:35:57;12.82;;;2.95;;
52268;SDS011;38224;50.950;4.100;2023-09-30T12:38:23;7.60;;;2.85;;
52268;SDS011;38224;50.950;4.100;2023-09-30T12:40:50;6.10;;;2.42;;
52268;SDS011;38224;50.950;4.100;2023-09-30T12:43:15;8.73;;;2.83;;
52268;SDS011;38224;50.950;4.100;2023-09-30T12:45:41;11.30;;;3.20;;
52268;SDS011;38224;50.950;4.100;2023-09-30T12:48:06;10.33;;;2.90;;
52268;SDS011;38224;50.950;4.100;2023-09-30T12:50:32;10.00;;;3.28;;
52268;SDS011;38224;50.950;4.100;2023-09-30T12:52:57;10.93;;;2.60;;
52268;SDS011;38224;50.950;4.100;2023-09-30T12:55:23;8.30;;;2.90;;
52268;SDS011;38224;50.950;4.100;2023-09-30T12:57:48;8.63;;;3.87;;
52268;SDS011;38224;50.950;4.100;2023-09-30T13:00:13;8.30;;;2.30;;
52268;SDS011;38224;50.950;4.100;2023-09-30T13:02:40;10.32;;;2.70;;
52268;SDS011;38224;50.950;4.100;2023-09-30T13:05:06;8.98;;;2.67;;
52268;SDS011;38224;50.950;4.100;2023-09-30T13:07:32;11.75;;;2.80;;
52268;SDS011;38224;50.950;4.100;2023-09-30T13:09:58;10.65;;;2.58;;
52268;SDS011;38224;50.950;4.100;2023-09-30T13:12:25;9.13;;;2.97;;
52268;SDS011;38224;50.950;4.100;2023-09-30T13:14:51;10.30;;;2.80;;
52268;SDS011;38224;50.950;4.100;2023-09-30T13:17:18;8.38;;;2.78;;
52268;SDS011;38224;50.950;4.100;2023-09-30T13:19:43;9.47;;;3.00;;
52268;SDS011;38224;50.950;4.100;2023-09-30T13:22:09;8.63;;;2.63;;
52268;SDS011;38224;50.950;4.100;2023-09-30T13:24:34;12.88;;;2.85;;
52268;SDS011;38224;50.950;4.100;2023-09-30T13:27:04;15.77;;;3.90;;
52268;SDS011;38224;50.950;4.100;2023-09-30T13:29:30;13.48;;;3.50;;
52268;SDS011;38224;50.950;4.100;2023-09-30T13:31:55;9.13;;;2.63;;
52268;SDS011;38224;50.950;4.100;2023-09-30T13:34:20;12.18;;;3.13;;
52268;SDS011;38224;50.950;4.100;2023-09-30T13:36:46;6.67;;;2.70;;
52268;SDS011;38224;50.950;4.100;2023-09-30T13:39:11;9.57;;;3.30;;
52268;SDS011;38224;50.950;4.100;2023-09-30T13:41:38;11.63;;;3.50;;
52268;SDS011;38224;50.950;4.100;2023-09-30T13:44:04;12.60;;;3.55;;
52268;SDS011;38224;50.950;4.100;2023-09-30T13:46:30;13.48;;;3.25;;
52268;SDS011;38224;50.950;4.100;2023-09-30T13:48:55;12.05;;;2.85;;
52268;SDS011;38224;50.950;4.100;2023-09-30T13:51:21;9.55;;;2.72;;
52268;SDS011;38224;50.950;4.100;2023-09-30T13:53:46;7.80;;;2.70;;
52268;SDS011;38224;50.950;4.100;2023-09-30T13:56:11;6.23;;;2.40;;
52268;SDS011;38224;50.950;4.100;2023-09-30T13:58:36;7.50;;;2.77;;
52268;SDS011;38224;50.950;4.100;2023-09-30T14:01:02;8.10;;;2.47;;
52268;SDS011;38224;50.950;4.100;2023-09-30T14:03:27;10.10;;;3.13;;
52268;SDS011;38224;50.950;4.100;2023-09-30T14:05:53;10.35;;;2.40;;
52268;SDS011;38224;50.950;4.100;2023-09-30T14:08:19;8.55;;;2.55;;
52268;SDS011;38224;50.950;4.100;2023-09-30T14:10:44;10.27;;;2.97;;
52268;SDS011;38224;50.950;4.100;2023-09-30T14:13:10;8.60;;;2.20;;
52268;SDS011;38224;50.950;4.100;2023-09-30T14:15:35;8.48;;;2.65;;
52268;SDS011;38224;50.950;4.100;2023-09-30T14:18:01;8.82;;;3.45;;
52268;SDS011;38224;50.950;4.100;2023-09-30T14:20:27;8.45;;;2.40;;
52268;SDS011;38224;50.950;4.100;2023-09-30T14:22:52;7.75;;;2.55;;
52268;SDS011;38224;50.950;4.100;2023-09-30T14:25:18;9.32;;;3.08;;
52268;SDS011;38224;50.950;4.100;2023-09-30T14:27:43;8.18;;;2.75;;
52268;SDS011;38224;50.950;4.100;2023-09-30T14:30:08;9.53;;;2.33;;
52268;SDS011;38224;50.950;4.100;2023-09-30T14:32:34;8.13;;;2.70;;
52268;SDS011;38224;50.950;4.100;2023-09-30T14:34:59;10.18;;;2.20;;
52268;SDS011;38224;50.950;4.100;2023-09-30T14:37:25;8.60;;;2.40;;
52268;SDS011;38224;50.950;4.100;2023-09-30T14:39:50;8.57;;;2.33;;